Time;durP1;ratioP1;P1;durP2;ratioP2;P2;SDS_P1;SDS_P2;PMS_P1;PMS_P2;Temp;Humidity;BMP_temperature;BMP_pressure;BME280_temperature;BME280_humidity;BME280_pressure;Samples;Min_cycle;Max_cycle;Signal;HPM_P1;HPM_P2
2024/03/22 00:00:21;;;;;;;17.45;11.02;;;10.60;99.90;;;;;;5083158;28;20060;-70
2024/03/22 00:02:46;;;;;;;20.70;11.38;;;10.60;99.90;;;;;;5061947;28;20047;-70
2024/03/22 00:05:12;;;;;;;21.42;11.95;;;10.60;99.90;;;;;;5075350;28;20040;-70
2024/03/22 00:07:38;;;;;;;23.45;12.50;;;10.60;99.90;;;;;;5081630;28;20028;-70
2024/03/22 00:10:05;;;;;;;22.77;12.02;;;10.60;99.90;;;;;;5077963;28;20047;-69
2024/03/22 00:12:31;;;;;;;24.93;13.80;;;10.70;99.90;;;;;;5074913;28;20517;-69
2024/03/22 00:14:56;;;;;;;28.63;13.80;;;10.60;99.90;;;;;;5078328;28;20035;-70
2024/03/22 00:17:22;;;;;;;26.30;14.02;;;10.70;99.90;;;;;;5077561;28;20037;-69
2024/03/22 00:19:47;;;;;;;29.23;14.40;;;10.60;99.90;;;;;;5082344;28;20481;-69
2024/03/22 00:22:13;;;;;;;24.80;14.90;;;10.70;99.90;;;;;;5074090;28;20070;-69
2024/03/22 00:24:39;;;;;;;26.52;14.48;;;10.70;99.90;;;;;;5078451;28;20037;-69
2024/03/22 00:27:04;;;;;;;29.38;13.93;;;10.70;99.90;;;;;;5079298;28;20021;-69
2024/03/22 00:29:30;;;;;;;30.77;15.77;;;10.70;99.90;;;;;;5076254;28;20568;-69
2024/03/22 00:31:55;;;;;;;26.05;14.90;;;10.70;99.90;;;;;;5078452;28;20043;-70
2024/03/22 00:34:21;;;;;;;28.77;14.45;;;10.70;99.90;;;;;;5065150;28;20200;-69
2024/03/22 00:36:47;;;;;;;27.85;14.35;;;10.80;99.90;;;;;;5065078;28;20036;-69
2024/03/22 00:39:12;;;;;;;28.23;15.13;;;10.80;99.90;;;;;;5080981;28;20142;-69
2024/03/22 00:41:38;;;;;;;32.70;15.65;;;10.80;99.90;;;;;;5066803;28;20040;-69
2024/03/22 00:44:04;;;;;;;28.05;16.38;;;10.70;99.90;;;;;;5080778;28;20031;-69
2024/03/22 00:46:30;;;;;;;30.77;16.30;;;10.80;99.90;;;;;;5083532;28;20029;-69
2024/03/22 00:48:55;;;;;;;29.65;17.65;;;10.80;99.90;;;;;;5087322;28;20039;-69
2024/03/22 00:51:22;;;;;;;33.60;17.05;;;10.80;99.90;;;;;;5079740;28;20056;-69
2024/03/22 00:53:47;;;;;;;32.03;17.50;;;10.80;99.90;;;;;;5082626;28;20052;-69
2024/03/22 00:56:13;;;;;;;33.58;17.92;;;10.80;99.90;;;;;;5064752;28;20051;-69
2024/03/22 00:58:38;;;;;;;30.05;17.17;;;10.80;99.90;;;;;;5081336;28;20032;-69
2024/03/22 01:01:04;;;;;;;33.42;18.10;;;10.80;99.90;;;;;;5081451;28;20419;-69
2024/03/22 01:03:30;;;;;;;45.35;18.35;;;10.80;99.90;;;;;;5085545;28;20078;-69
2024/03/22 01:05:57;;;;;;;38.47;17.80;;;10.80;99.90;;;;;;5083164;28;20044;-69
2024/03/22 01:08:22;;;;;;;33.75;18.05;;;10.80;99.90;;;;;;5080413;28;20056;-69
2024/03/22 01:10:48;;;;;;;39.10;17.52;;;10.80;99.90;;;;;;5075583;28;20473;-69
2024/03/22 01:13:14;;;;;;;38.80;19.05;;;10.80;99.90;;;;;;5070575;28;20028;-69
2024/03/22 01:15:39;;;;;;;37.83;20.83;;;10.80;99.90;;;;;;5069075;28;20051;-70
2024/03/22 01:18:05;;;;;;;38.47;19.08;;;10.80;99.90;;;;;;5084294;28;20044;-69
2024/03/22 01:20:30;;;;;;;40.30;20.63;;;10.80;99.90;;;;;;5082431;28;20048;-70
2024/03/22 01:22:56;;;;;;;33.60;19.80;;;10.80;99.90;;;;;;5089343;28;20055;-69
2024/03/22 01:25:21;;;;;;;37.63;19.83;;;10.80;99.90;;;;;;5077504;28;20028;-69
2024/03/22 01:27:47;;;;;;;36.28;20.27;;;10.90;99.90;;;;;;5084164;28;20127;-69
2024/03/22 01:30:13;;;;;;;48.50;23.15;;;10.90;99.90;;;;;;5087959;28;20154;-69
2024/03/22 01:32:38;;;;;;;42.22;22.27;;;10.90;99.90;;;;;;5085513;28;20204;-69
2024/03/22 01:35:04;;;;;;;42.17;22.08;;;10.90;99.90;;;;;;5079842;28;20115;-69
2024/03/22 01:37:30;;;;;;;47.20;24.55;;;11.00;99.90;;;;;;5083807;28;20084;-69
2024/03/22 01:39:55;;;;;;;43.60;23.95;;;11.00;99.90;;;;;;5084094;28;20409;-69
2024/03/22 01:42:21;;;;;;;46.75;24.65;;;11.00;99.90;;;;;;5086234;28;20128;-69
2024/03/22 01:44:49;;;;;;;45.88;24.33;;;11.00;99.90;;;;;;5084349;28;20028;-69
2024/03/22 01:47:15;;;;;;;47.70;24.88;;;11.00;99.90;;;;;;5082943;28;20507;-69
2024/03/22 01:49:41;;;;;;;45.80;24.92;;;11.00;99.90;;;;;;5066881;28;20024;-69
2024/03/22 01:52:07;;;;;;;50.15;25.77;;;11.00;99.90;;;;;;5082564;28;20124;-69
2024/03/22 01:54:32;;;;;;;43.22;24.48;;;11.00;99.90;;;;;;5072106;28;20040;-69
2024/03/22 01:56:58;;;;;;;50.38;24.52;;;11.10;99.90;;;;;;5082404;28;20032;-69
2024/03/22 01:59:25;;;;;;;49.83;24.88;;;11.10;99.90;;;;;;5069369;28;20564;-69
2024/03/22 02:01:51;;;;;;;55.63;25.80;;;11.10;99.90;;;;;;5081040;28;20031;-69
2024/03/22 02:04:17;;;;;;;47.13;25.80;;;11.10;99.90;;;;;;5068341;28;20024;-69
2024/03/22 02:06:42;;;;;;;49.88;25.55;;;11.10;99.90;;;;;;5086593;28;20578;-69
2024/03/22 02:09:11;;;;;;;46.10;23.95;;;11.10;99.90;;;;;;5084713;28;20119;-69
2024/03/22 02:11:39;;;;;;;55.10;25.15;;;11.10;99.90;;;;;;5081053;28;20037;-69
2024/03/22 02:14:04;;;;;;;48.08;25.83;;;11.10;99.90;;;;;;5082740;28;20028;-69
2024/03/22 02:16:30;;;;;;;55.72;25.55;;;11.10;99.90;;;;;;5082162;28;20465;-69
2024/03/22 02:18:56;;;;;;;49.28;24.35;;;11.20;99.90;;;;;;5080170;28;20109;-69
2024/03/22 02:21:21;;;;;;;49.78;26.48;;;11.20;99.90;;;;;;5080081;28;20032;-69
2024/03/22 02:23:47;;;;;;;51.75;27.05;;;11.10;99.90;;;;;;5083187;28;20036;-69
2024/03/22 02:26:12;;;;;;;44.40;24.15;;;11.10;99.90;;;;;;5069099;28;20508;-69
2024/03/22 02:28:38;;;;;;;51.65;24.98;;;11.20;99.90;;;;;;5082379;28;20028;-69
2024/03/22 02:31:04;;;;;;;47.90;24.60;;;11.20;99.90;;;;;;5083741;28;20046;-69
2024/03/22 02:33:30;;;;;;;48.13;24.23;;;11.20;99.90;;;;;;5080736;28;20028;-69
2024/03/22 02:35:56;;;;;;;50.90;25.77;;;11.20;99.90;;;;;;5065387;28;20032;-69
2024/03/22 02:38:22;;;;;;;49.97;24.90;;;11.30;99.90;;;;;;5061140;28;20036;-69
2024/03/22 02:40:49;;;;;;;49.38;24.52;;;11.20;99.90;;;;;;5083609;28;20024;-69
2024/03/22 02:43:15;;;;;;;54.42;24.58;;;11.20;99.90;;;;;;5063011;28;20046;-69
2024/03/22 02:45:40;;;;;;;58.45;26.23;;;11.20;99.90;;;;;;5081990;28;20039;-69
2024/03/22 02:48:07;;;;;;;52.22;25.00;;;11.20;99.90;;;;;;5085914;28;20033;-69
2024/03/22 02:50:37;;;;;;;49.63;24.35;;;11.20;99.90;;;;;;5079435;28;20029;-69
2024/03/22 02:53:03;;;;;;;50.47;24.60;;;11.20;99.90;;;;;;5085104;28;20032;-69
2024/03/22 02:55:29;;;;;;;55.55;26.45;;;11.20;99.90;;;;;;5082171;28;20601;-69
2024/03/22 02:57:56;;;;;;;53.28;25.27;;;11.10;99.90;;;;;;5078832;28;20527;-69
2024/03/22 03:00:22;;;;;;;49.97;26.57;;;11.10;99.90;;;;;;5063177;28;20032;-70
2024/03/22 03:02:48;;;;;;;53.35;26.50;;;11.10;99.90;;;;;;5081210;28;20137;-69
2024/03/22 03:05:13;;;;;;;51.42;26.00;;;11.10;99.90;;;;;;5080550;28;20089;-69
2024/03/22 03:07:40;;;;;;;48.63;25.77;;;11.10;99.90;;;;;;5082683;28;20028;-69
2024/03/22 03:10:06;;;;;;;57.67;28.10;;;11.10;99.90;;;;;;5078012;28;20533;-69
2024/03/22 03:12:32;;;;;;;52.17;25.45;;;11.10;99.90;;;;;;5084115;28;20473;-69
2024/03/22 03:14:57;;;;;;;58.42;27.58;;;11.20;99.90;;;;;;5079818;28;20032;-69
2024/03/22 03:17:23;;;;;;;55.70;27.63;;;11.20;99.90;;;;;;5075429;28;20158;-69
2024/03/22 03:19:49;;;;;;;56.63;27.60;;;11.20;99.90;;;;;;5079089;28;20111;-69
2024/03/22 03:22:14;;;;;;;57.30;27.65;;;11.10;99.90;;;;;;5077391;28;20552;-69
2024/03/22 03:24:40;;;;;;;55.38;27.17;;;11.10;99.90;;;;;;5077003;28;20153;-69
2024/03/22 03:27:06;;;;;;;64.25;27.83;;;11.10;99.90;;;;;;5077667;28;20055;-69
2024/03/22 03:29:31;;;;;;;56.95;28.15;;;11.10;99.90;;;;;;5079535;28;20127;-69
2024/03/22 03:31:57;;;;;;;60.70;28.15;;;11.20;99.90;;;;;;5077752;28;20527;-69
2024/03/22 03:34:23;;;;;;;58.40;27.70;;;11.20;99.90;;;;;;5075744;28;20159;-70
2024/03/22 03:36:48;;;;;;;62.25;28.05;;;11.20;99.90;;;;;;5080978;28;20028;-69
2024/03/22 03:39:14;;;;;;;61.80;28.35;;;11.10;99.90;;;;;;5077804;28;20400;-69
2024/03/22 03:41:39;;;;;;;64.20;28.77;;;11.10;99.90;;;;;;5080258;28;20037;-69
2024/03/22 03:44:06;;;;;;;65.55;28.33;;;11.10;99.90;;;;;;5082199;28;20039;-69
2024/03/22 03:46:32;;;;;;;60.60;29.15;;;11.10;99.90;;;;;;5064270;28;20028;-69
2024/03/22 03:48:57;;;;;;;61.55;27.63;;;11.20;99.90;;;;;;5079735;28;20036;-69
2024/03/22 03:51:23;;;;;;;58.33;27.67;;;11.20;99.90;;;;;;5076227;28;20032;-69
2024/03/22 03:53:49;;;;;;;64.30;29.77;;;11.20;99.90;;;;;;5083486;28;20063;-69
2024/03/22 03:56:14;;;;;;;57.03;28.52;;;11.20;99.90;;;;;;5076813;28;20635;-69
2024/03/22 03:58:40;;;;;;;58.00;28.15;;;11.10;99.90;;;;;;5082542;28;20024;-69
2024/03/22 04:01:07;;;;;;;65.22;27.85;;;11.20;99.90;;;;;;5081464;28;20098;-69
2024/03/22 04:03:32;;;;;;;62.88;29.85;;;11.10;99.90;;;;;;5076142;28;20416;-69
2024/03/22 04:05:58;;;;;;;58.03;27.27;;;11.10;99.90;;;;;;5079788;28;20028;-69
2024/03/22 04:08:27;;;;;;;63.00;29.15;;;11.10;99.90;;;;;;5079780;28;20036;-69
2024/03/22 04:10:56;;;;;;;60.75;28.55;;;11.20;99.90;;;;;;5075643;28;20119;-69
2024/03/22 04:13:22;;;;;;;63.13;29.67;;;11.10;99.90;;;;;;5067622;28;20047;-69
2024/03/22 04:15:48;;;;;;;63.55;29.55;;;11.10;99.90;;;;;;5081061;28;20063;-69
2024/03/22 04:18:13;;;;;;;62.58;29.75;;;11.10;99.90;;;;;;5083069;28;20051;-69
2024/03/22 04:20:39;;;;;;;55.08;27.42;;;11.20;99.90;;;;;;5085256;28;20394;-69
2024/03/22 04:23:04;;;;;;;59.70;28.60;;;11.10;99.90;;;;;;5081350;28;20043;-69
2024/03/22 04:25:30;;;;;;;68.95;29.77;;;11.20;99.90;;;;;;5083192;28;20059;-69
2024/03/22 04:27:55;;;;;;;67.13;30.48;;;11.20;99.90;;;;;;5084747;28;20047;-69
2024/03/22 04:30:21;;;;;;;60.55;28.55;;;11.20;99.90;;;;;;5086872;28;20038;-69
2024/03/22 04:32:47;;;;;;;59.33;28.17;;;11.20;99.90;;;;;;5085103;28;20528;-69
2024/03/22 04:35:13;;;;;;;61.50;28.83;;;11.20;99.90;;;;;;5094752;27;20028;-69
2024/03/22 04:37:38;;;;;;;65.45;29.55;;;11.20;99.90;;;;;;5087272;28;20060;-70
2024/03/22 04:40:04;;;;;;;65.95;29.42;;;11.20;99.90;;;;;;5072461;28;20031;-69
2024/03/22 04:42:30;;;;;;;62.17;30.05;;;11.20;99.90;;;;;;5075726;28;20036;-69
2024/03/22 04:44:57;;;;;;;68.32;30.40;;;11.30;99.90;;;;;;5085832;28;20445;-69
2024/03/22 04:47:23;;;;;;;60.17;29.17;;;11.20;99.90;;;;;;5087556;28;20024;-69
2024/03/22 04:49:49;;;;;;;64.70;29.85;;;11.20;99.90;;;;;;5084639;28;20024;-69
2024/03/22 04:52:14;;;;;;;66.20;29.42;;;11.30;99.90;;;;;;5090294;28;20043;-69
2024/03/22 04:54:40;;;;;;;62.53;28.83;;;11.20;99.90;;;;;;5067708;28;20123;-69
2024/03/22 04:57:06;;;;;;;63.92;29.88;;;11.20;99.90;;;;;;5085347;28;20040;-69
2024/03/22 04:59:31;;;;;;;66.97;28.98;;;11.20;99.90;;;;;;5069801;28;20044;-69
2024/03/22 05:01:57;;;;;;;69.15;30.30;;;11.20;99.90;;;;;;5085801;28;20040;-69
2024/03/22 05:04:22;;;;;;;66.38;29.80;;;11.20;99.90;;;;;;5085327;28;20043;-69
2024/03/22 05:06:49;;;;;;;65.22;28.40;;;11.20;99.90;;;;;;5071769;28;20071;-69
2024/03/22 05:09:15;;;;;;;71.07;30.88;;;11.20;99.90;;;;;;5087496;28;20514;-69
2024/03/22 05:11:40;;;;;;;66.70;29.17;;;11.20;99.90;;;;;;5087537;28;20031;-69
2024/03/22 05:14:06;;;;;;;66.82;29.27;;;11.20;99.90;;;;;;5083844;28;20635;-69
2024/03/22 05:16:31;;;;;;;63.33;29.40;;;11.20;99.90;;;;;;5072062;28;20028;-69
2024/03/22 05:18:57;;;;;;;70.18;30.75;;;11.20;99.90;;;;;;5087105;28;20033;-66
2024/03/22 05:21:22;;;;;;;66.63;29.38;;;11.20;99.90;;;;;;5086818;28;20043;-66
2024/03/22 05:23:48;;;;;;;69.68;30.27;;;11.20;99.90;;;;;;5083584;28;20066;-66
2024/03/22 05:26:14;;;;;;;60.30;28.02;;;11.20;99.90;;;;;;5079916;28;20032;-66
2024/03/22 05:28:39;;;;;;;66.80;28.75;;;11.30;99.90;;;;;;5083013;28;20396;-66
2024/03/22 05:31:05;;;;;;;64.80;28.73;;;11.20;99.90;;;;;;5082053;28;20046;-66
2024/03/22 05:33:32;;;;;;;67.10;30.27;;;11.30;99.90;;;;;;5080573;28;20040;-66
2024/03/22 05:35:57;;;;;;;65.60;28.42;;;11.20;99.90;;;;;;5077709;28;20036;-66
2024/03/22 05:38:23;;;;;;;66.32;29.05;;;11.30;99.90;;;;;;5083273;28;20032;-66
2024/03/22 05:40:48;;;;;;;60.58;28.35;;;11.30;99.90;;;;;;5082440;28;20041;-66
2024/03/22 05:43:14;;;;;;;74.20;28.45;;;11.30;99.90;;;;;;5080861;28;20133;-66
2024/03/22 05:45:40;;;;;;;68.55;29.77;;;11.30;99.90;;;;;;5081244;28;20035;-66
2024/03/22 05:48:05;;;;;;;65.43;27.58;;;11.30;99.90;;;;;;5080136;28;20032;-66
2024/03/22 05:50:31;;;;;;;59.40;26.35;;;11.40;99.90;;;;;;5079156;28;20033;-66
2024/03/22 05:52:57;;;;;;;61.13;28.15;;;11.40;99.90;;;;;;5085737;28;20127;-66
2024/03/22 05:55:22;;;;;;;69.80;28.95;;;11.40;99.90;;;;;;5081434;28;20032;-66
2024/03/22 05:57:49;;;;;;;62.28;27.63;;;11.40;99.90;;;;;;5079994;28;20676;-67
2024/03/22 06:00:14;;;;;;;61.58;28.10;;;11.50;99.90;;;;;;5080564;28;20091;-66
2024/03/22 06:02:40;;;;;;;65.88;28.30;;;11.50;99.90;;;;;;5079603;28;20041;-65
2024/03/22 06:05:06;;;;;;;62.40;27.70;;;11.50;99.90;;;;;;5079911;28;20036;-65
2024/03/22 06:07:40;;;;;;;66.55;28.77;;;11.50;99.90;;;;;;5065607;28;20521;-65
2024/03/22 06:10:06;;;;;;;61.65;25.98;;;11.50;99.90;;;;;;5080422;28;20047;-66
2024/03/22 06:12:31;;;;;;;64.10;26.83;;;11.60;99.90;;;;;;5064525;28;20400;-66
2024/03/22 06:14:57;;;;;;;63.50;27.65;;;11.60;99.90;;;;;;5081411;28;20036;-65
2024/03/22 06:17:23;;;;;;;60.95;27.48;;;11.60;99.90;;;;;;5079052;28;20453;-66
2024/03/22 06:19:48;;;;;;;66.78;26.33;;;11.60;99.90;;;;;;5079020;28;20028;-66
2024/03/22 06:22:14;;;;;;;60.80;27.27;;;11.60;99.90;;;;;;5080237;28;20036;-66
2024/03/22 06:24:40;;;;;;;58.60;27.15;;;11.70;99.90;;;;;;5078818;28;20601;-66
2024/03/22 06:27:07;;;;;;;59.25;26.55;;;11.70;99.90;;;;;;5081554;28;20053;-66
2024/03/22 06:29:32;;;;;;;53.20;24.97;;;11.70;99.90;;;;;;5083568;28;20055;-66
2024/03/22 06:31:58;;;;;;;63.13;27.58;;;11.70;99.90;;;;;;5082627;28;20083;-66
2024/03/22 06:34:24;;;;;;;57.22;26.42;;;11.70;99.90;;;;;;5061574;28;20012;-66
2024/03/22 06:36:50;;;;;;;61.20;26.95;;;11.70;99.90;;;;;;5076037;28;20028;-65
2024/03/22 06:39:16;;;;;;;58.92;26.00;;;11.80;99.90;;;;;;5073967;28;20025;-66
2024/03/22 06:41:42;;;;;;;59.08;25.33;;;11.80;99.90;;;;;;5078838;28;20102;-66
2024/03/22 06:44:11;;;;;;;56.65;24.67;;;11.90;99.90;;;;;;5066606;28;20071;-66
2024/03/22 06:46:37;;;;;;;55.50;26.27;;;11.90;99.90;;;;;;5078621;28;20617;-66
2024/03/22 06:49:03;;;;;;;59.50;26.90;;;11.90;99.90;;;;;;5078974;28;20020;-66
2024/03/22 06:51:29;;;;;;;51.10;23.88;;;11.90;99.90;;;;;;5081065;28;20048;-66
2024/03/22 06:53:54;;;;;;;56.40;24.63;;;11.90;99.90;;;;;;5079366;28;20058;-66
2024/03/22 06:56:20;;;;;;;60.58;25.20;;;12.00;99.90;;;;;;5063532;28;20028;-66
2024/03/22 06:58:47;;;;;;;54.33;23.75;;;12.00;99.90;;;;;;5078641;28;20056;-66
2024/03/22 07:01:12;;;;;;;54.65;24.67;;;12.10;99.90;;;;;;5082030;28;20008;-66
2024/03/22 07:03:38;;;;;;;55.53;23.88;;;12.00;99.90;;;;;;5079633;28;20085;-66
2024/03/22 07:06:05;;;;;;;50.00;24.48;;;12.10;99.90;;;;;;5057138;28;20040;-66
2024/03/22 07:08:31;;;;;;;51.75;21.92;;;12.10;99.90;;;;;;5085784;28;20062;-66
2024/03/22 07:10:57;;;;;;;51.92;23.33;;;12.10;99.90;;;;;;5079588;28;20060;-66
2024/03/22 07:13:23;;;;;;;50.85;23.92;;;12.20;99.90;;;;;;5088108;28;20031;-66
2024/03/22 07:15:49;;;;;;;52.95;23.60;;;12.20;99.90;;;;;;5087561;28;20547;-66
2024/03/22 07:18:14;;;;;;;51.33;23.05;;;12.20;99.90;;;;;;5078974;28;20036;-66
2024/03/22 07:20:41;;;;;;;48.40;22.45;;;12.30;99.90;;;;;;5085548;28;20038;-66
2024/03/22 07:23:07;;;;;;;49.85;21.85;;;12.30;99.90;;;;;;5086298;28;20645;-66
2024/03/22 07:25:33;;;;;;;45.92;21.98;;;12.30;99.90;;;;;;5087023;28;20039;-66
2024/03/22 07:27:59;;;;;;;49.95;21.73;;;12.30;99.90;;;;;;5088029;28;20446;-66
2024/03/22 07:30:24;;;;;;;50.30;23.33;;;12.40;99.90;;;;;;5081661;28;20028;-66
2024/03/22 07:32:50;;;;;;;48.63;21.77;;;12.40;99.90;;;;;;5078000;28;20503;-66
2024/03/22 07:35:16;;;;;;;42.03;21.08;;;12.40;99.90;;;;;;5087399;28;20093;-66
2024/03/22 07:37:42;;;;;;;47.92;21.98;;;12.50;99.90;;;;;;5087085;28;20024;-66
2024/03/22 07:40:08;;;;;;;46.45;21.90;;;12.50;99.90;;;;;;5087734;28;20588;-66
2024/03/22 07:42:33;;;;;;;49.90;22.23;;;12.50;99.90;;;;;;5069930;28;20028;-66
2024/03/22 07:44:59;;;;;;;45.25;21.90;;;12.60;99.90;;;;;;5069712;28;20028;-66
2024/03/22 07:47:25;;;;;;;45.47;21.38;;;12.60;99.90;;;;;;5083736;28;20054;-66
2024/03/22 07:49:51;;;;;;;42.22;21.45;;;12.70;99.90;;;;;;5074196;28;20021;-66
2024/03/22 07:52:16;;;;;;;49.83;21.95;;;12.70;99.90;;;;;;5069254;28;20132;-66
2024/03/22 07:54:42;;;;;;;42.90;20.58;;;12.70;99.90;;;;;;5077418;28;20654;-66
2024/03/22 07:57:07;;;;;;;42.83;20.88;;;12.70;99.90;;;;;;5086989;28;20028;-66
2024/03/22 07:59:33;;;;;;;39.58;17.92;;;12.70;99.90;;;;;;5087464;28;20501;-66
2024/03/22 08:01:59;;;;;;;47.25;21.02;;;12.80;99.90;;;;;;5087158;28;20520;-66
2024/03/22 08:04:24;;;;;;;44.25;19.00;;;12.80;99.90;;;;;;5086873;28;20528;-66
2024/03/22 08:06:53;;;;;;;57.42;20.30;;;12.80;99.90;;;;;;5087699;28;20059;-66
2024/03/22 08:09:19;;;;;;;41.97;19.05;;;12.80;99.90;;;;;;5087429;28;20028;-66
2024/03/22 08:11:44;;;;;;;46.63;21.40;;;12.90;99.90;;;;;;5072560;28;20029;-66
2024/03/22 08:14:10;;;;;;;42.90;19.85;;;12.90;99.90;;;;;;5080979;28;20032;-66
2024/03/22 08:16:36;;;;;;;40.42;18.08;;;13.00;99.90;;;;;;5069958;28;20499;-66
2024/03/22 08:19:01;;;;;;;43.35;18.60;;;13.00;99.90;;;;;;5087186;28;20717;-66
2024/03/22 08:21:27;;;;;;;40.75;18.50;;;13.10;99.90;;;;;;5086931;28;20471;-66
2024/03/22 08:23:53;;;;;;;40.90;19.08;;;13.10;99.90;;;;;;5087091;28;20028;-66
2024/03/22 08:26:19;;;;;;;36.00;17.75;;;13.10;99.90;;;;;;5070739;28;20024;-66
2024/03/22 08:28:46;;;;;;;35.67;17.20;;;13.20;99.90;;;;;;5086747;28;20035;-66
2024/03/22 08:31:12;;;;;;;37.50;17.92;;;13.30;99.90;;;;;;5081129;28;20031;-66
2024/03/22 08:33:37;;;;;;;37.60;18.33;;;13.30;99.90;;;;;;5079720;28;20017;-66
2024/03/22 08:36:03;;;;;;;34.58;16.65;;;13.30;99.90;;;;;;5082330;28;20029;-66
2024/03/22 08:38:29;;;;;;;38.72;18.38;;;13.30;99.90;;;;;;5086616;28;20032;-66
2024/03/22 08:40:54;;;;;;;39.08;17.25;;;13.40;99.90;;;;;;5085369;28;20043;-66
2024/03/22 08:43:22;;;;;;;34.80;17.25;;;13.40;99.90;;;;;;5082946;28;20047;-66
2024/03/22 08:45:48;;;;;;;35.78;17.20;;;13.40;99.90;;;;;;5084716;28;20420;-65
2024/03/22 08:48:13;;;;;;;33.10;17.20;;;13.50;99.90;;;;;;5086832;28;20021;-66
2024/03/22 08:50:41;;;;;;;39.95;17.58;;;13.50;99.90;;;;;;5087021;28;20024;-66
2024/03/22 08:53:07;;;;;;;34.88;17.67;;;13.50;99.90;;;;;;5076897;28;20032;-66
2024/03/22 08:55:33;;;;;;;35.80;17.30;;;13.50;99.90;;;;;;5077230;28;20035;-66
2024/03/22 08:57:58;;;;;;;35.80;18.58;;;13.40;99.90;;;;;;5072726;28;20036;-66
2024/03/22 09:00:24;;;;;;;31.65;16.30;;;13.40;99.90;;;;;;5084147;28;20028;-66
2024/03/22 09:02:49;;;;;;;36.08;16.88;;;13.40;99.90;;;;;;5086663;28;20028;-66
2024/03/22 09:05:15;;;;;;;36.10;16.52;;;13.40;99.90;;;;;;5090143;28;20125;-66
2024/03/22 09:07:41;;;;;;;33.90;17.25;;;13.30;99.90;;;;;;5090086;28;20488;-67
2024/03/22 09:10:07;;;;;;;31.60;16.42;;;13.40;99.90;;;;;;5071900;28;20060;-66
2024/03/22 09:12:32;;;;;;;36.85;17.98;;;13.30;99.90;;;;;;5088317;28;20195;-66
2024/03/22 09:14:58;;;;;;;31.55;16.38;;;13.30;99.90;;;;;;5089502;28;20031;-66
2024/03/22 09:17:23;;;;;;;30.48;15.48;;;13.40;99.90;;;;;;5090921;28;20021;-66
2024/03/22 09:19:49;;;;;;;33.67;15.02;;;13.40;99.90;;;;;;5090084;28;20124;-66
2024/03/22 09:22:15;;;;;;;33.53;15.50;;;13.40;99.90;;;;;;5081568;28;20439;-66
2024/03/22 09:24:40;;;;;;;34.13;16.83;;;13.40;99.90;;;;;;5089846;28;20036;-66
2024/03/22 09:27:09;;;;;;;30.38;14.90;;;13.40;99.90;;;;;;5076331;28;20532;-66
2024/03/22 09:29:36;;;;;;;32.78;16.02;;;13.40;99.90;;;;;;5076914;28;20025;-66
2024/03/22 09:32:02;;;;;;;30.42;14.98;;;13.40;99.90;;;;;;5086803;28;20523;-66
2024/03/22 09:34:28;;;;;;;30.90;14.95;;;13.50;99.90;;;;;;5085109;28;20759;-66
2024/03/22 09:36:53;;;;;;;29.73;15.63;;;13.50;99.90;;;;;;5089695;28;20107;-66
2024/03/22 09:39:19;;;;;;;28.85;14.57;;;13.50;99.90;;;;;;5080695;28;20039;-66
2024/03/22 09:41:44;;;;;;;31.90;15.23;;;13.50;99.90;;;;;;5081110;28;20032;-66
2024/03/22 09:44:14;;;;;;;33.45;15.50;;;13.50;99.90;;;;;;5074247;28;20497;-66
2024/03/22 09:46:42;;;;;;;32.67;14.38;;;13.50;99.90;;;;;;5086932;28;20028;-67
2024/03/22 09:49:11;;;;;;;26.63;14.88;;;13.60;99.90;;;;;;5088867;28;20028;-66
2024/03/22 09:51:38;;;;;;;27.75;14.30;;;13.60;99.90;;;;;;5089652;28;20547;-66
2024/03/22 09:54:04;;;;;;;27.88;14.75;;;13.60;99.90;;;;;;5084083;28;20056;-66
2024/03/22 09:56:31;;;;;;;26.20;13.23;;;13.60;99.90;;;;;;5085337;28;20044;-66
2024/03/22 09:58:58;;;;;;;29.97;14.17;;;13.60;99.90;;;;;;5089180;28;20039;-66
2024/03/22 10:01:27;;;;;;;27.40;13.73;;;13.60;99.90;;;;;;5089696;28;20085;-66
2024/03/22 10:03:53;;;;;;;30.10;13.82;;;13.70;99.90;;;;;;5064195;28;20112;-66
2024/03/22 10:06:19;;;;;;;31.17;13.43;;;13.70;99.90;;;;;;5084535;28;20119;-66
2024/03/22 10:08:45;;;;;;;28.85;13.38;;;13.70;99.90;;;;;;5080596;28;20051;-67
2024/03/22 10:11:11;;;;;;;24.77;13.65;;;13.80;99.90;;;;;;5072512;28;20031;-66
2024/03/22 10:13:37;;;;;;;26.30;12.98;;;13.80;99.90;;;;;;5089234;28;20039;-66
2024/03/22 10:16:02;;;;;;;31.00;13.20;;;13.90;99.90;;;;;;5082557;28;20525;-66
2024/03/22 10:18:28;;;;;;;29.58;13.38;;;13.90;99.90;;;;;;5090693;28;20039;-66
2024/03/22 10:21:04;;;;;;;27.35;13.05;;;13.90;99.90;;;;;;5089617;28;20067;-66
2024/03/22 10:23:31;;;;;;;30.90;14.23;;;14.00;99.90;;;;;;5074073;28;20037;-66
2024/03/22 10:26:00;;;;;;;29.25;14.18;;;14.00;99.90;;;;;;5087350;28;20143;-66
2024/03/22 10:28:26;;;;;;;23.30;12.85;;;14.00;99.90;;;;;;5083867;28;20396;-65
2024/03/22 10:30:52;;;;;;;28.63;13.80;;;14.10;99.90;;;;;;5081034;28;20525;-66
2024/03/22 10:33:23;;;;;;;31.73;13.55;;;14.10;99.90;;;;;;5087908;28;20499;-66
2024/03/22 10:35:56;;;;;;;29.40;13.18;;;14.10;99.90;;;;;;5082230;28;20079;-66
2024/03/22 10:38:22;;;;;;;25.83;14.13;;;14.10;99.90;;;;;;5084080;28;20512;-66
2024/03/22 10:40:48;;;;;;;28.92;14.15;;;14.10;99.90;;;;;;5062120;28;20032;-66
2024/03/22 10:43:15;;;;;;;29.75;12.90;;;14.10;99.90;;;;;;5076480;28;20343;-66
2024/03/22 10:45:41;;;;;;;24.27;13.18;;;14.10;99.90;;;;;;5087936;28;20400;-66
2024/03/22 10:48:11;;;;;;;27.35;12.48;;;14.10;99.90;;;;;;5078201;28;20048;-66
2024/03/22 10:50:42;;;;;;;28.75;14.70;;;14.00;99.90;;;;;;5087370;28;20711;-66
2024/03/22 10:53:21;;;;;;;28.48;13.68;;;14.10;99.90;;;;;;5078602;28;20141;-67
2024/03/22 10:55:48;;;;;;;26.80;13.55;;;14.10;99.90;;;;;;5073555;28;20024;-66
2024/03/22 10:58:18;;;;;;;24.38;13.43;;;14.10;99.90;;;;;;5065256;28;20059;-66
2024/03/22 11:00:44;;;;;;;25.45;14.10;;;14.20;99.90;;;;;;5064723;28;20031;-66
2024/03/22 11:03:10;;;;;;;27.30;13.82;;;14.20;99.90;;;;;;5072887;28;20412;-66
2024/03/22 11:05:45;;;;;;;26.35;15.88;;;14.30;99.90;;;;;;5078399;28;20029;-66
2024/03/22 11:08:11;;;;;;;30.00;13.85;;;14.40;99.90;;;;;;5076332;28;20056;-67
2024/03/22 11:10:37;;;;;;;32.10;14.55;;;14.50;99.90;;;;;;5077838;28;20553;-66
2024/03/22 11:13:09;;;;;;;27.77;14.38;;;14.60;99.90;;;;;;5081695;28;20028;-66
2024/03/22 11:15:35;;;;;;;32.53;13.52;;;14.60;99.90;;;;;;5087703;28;20020;-66
2024/03/22 11:18:00;;;;;;;26.15;12.93;;;14.70;99.90;;;;;;5086773;28;20031;-66
2024/03/22 11:20:32;;;;;;;25.95;12.95;;;14.70;99.90;;;;;;5086414;28;20058;-66
2024/03/22 11:22:57;;;;;;;27.88;13.00;;;14.70;99.90;;;;;;5078478;28;20036;-66
2024/03/22 11:25:23;;;;;;;28.42;14.90;;;14.70;99.90;;;;;;5080000;28;20031;-66
2024/03/22 11:27:49;;;;;;;28.88;12.90;;;14.70;99.90;;;;;;5080767;28;20538;-67
2024/03/22 11:30:17;;;;;;;24.50;13.35;;;14.70;99.90;;;;;;5080310;28;20507;-67
2024/03/22 11:32:46;;;;;;;23.95;13.43;;;14.80;99.90;;;;;;5084197;28;20032;-66
2024/03/22 11:35:13;;;;;;;28.75;13.52;;;14.70;99.90;;;;;;5076757;28;20469;-66
2024/03/22 11:37:39;;;;;;;23.75;13.20;;;14.70;99.90;;;;;;5085468;28;20016;-66
2024/03/22 11:40:06;;;;;;;27.83;12.85;;;14.60;99.90;;;;;;5078169;28;20024;-66
2024/03/22 11:42:35;;;;;;;25.45;11.70;;;14.60;99.90;;;;;;5058457;28;20174;-67
2024/03/22 11:45:02;;;;;;;22.10;12.57;;;14.50;99.90;;;;;;5086620;28;20066;-66
2024/03/22 11:47:27;;;;;;;23.63;12.80;;;14.40;99.90;;;;;;5059532;28;20036;-66
2024/03/22 11:49:55;;;;;;;23.50;12.38;;;14.40;99.90;;;;;;5086498;28;20032;-66
2024/03/22 11:52:27;;;;;;;24.35;12.13;;;14.40;99.90;;;;;;5083306;28;20473;-66
2024/03/22 11:54:53;;;;;;;25.52;12.27;;;14.40;99.90;;;;;;5062298;28;20409;-67
2024/03/22 11:57:21;;;;;;;24.63;12.57;;;14.50;99.90;;;;;;5080511;28;20028;-66
2024/03/22 11:59:46;;;;;;;28.95;13.52;;;14.40;99.90;;;;;;5086983;28;20028;-66
2024/03/22 12:02:12;;;;;;;22.63;12.55;;;14.30;99.90;;;;;;5082493;28;20043;-66
2024/03/22 12:04:56;;;;;;;27.20;13.68;;;14.30;99.90;;;;;;5071350;28;20134;-66
2024/03/22 12:07:22;;;;;;;24.67;13.25;;;14.40;99.90;;;;;;5082476;28;20043;-66
2024/03/22 12:09:47;;;;;;;26.70;13.70;;;14.30;99.90;;;;;;5067333;28;20032;-66
2024/03/22 12:12:13;;;;;;;31.33;14.93;;;14.30;99.90;;;;;;5077274;28;20024;-66
2024/03/22 12:14:39;;;;;;;31.45;13.63;;;14.30;99.90;;;;;;5080391;28;20024;-66
2024/03/22 12:17:06;;;;;;;28.08;13.98;;;14.20;99.90;;;;;;5082171;28;20025;-66
2024/03/22 12:19:32;;;;;;;25.02;14.18;;;14.20;99.90;;;;;;5087762;28;20500;-66
2024/03/22 12:21:58;;;;;;;30.55;16.00;;;14.20;99.90;;;;;;5085818;28;20036;-66